Time;durP1;ratioP1;P1;durP2;ratioP2;P2;SDS_P1;SDS_P2;PMS_P1;PMS_P2;Temp;Humidity;BMP_temperature;BMP_pressure;BME280_temperature;BME280_humidity;BME280_pressure;Samples;Min_cycle;Max_cycle;Signal;HPM_P1;HPM_P2
2023/06/02 00:01:05;;;;;;;10.60;5.22;;;17.20;95.10;;;;;;5018002;28;20371;-55
2023/06/02 00:03:34;;;;;;;9.60;5.70;;;17.20;95.10;;;;;;5017095;28;20492;-55
2023/06/02 00:06:01;;;;;;;8.90;5.15;;;17.10;95.20;;;;;;5018214;28;20042;-54
2023/06/02 00:08:28;;;;;;;9.65;4.88;;;17.10;95.30;;;;;;5018095;28;20890;-56
2023/06/02 00:10:54;;;;;;;12.40;6.47;;;17.10;95.20;;;;;;5026241;28;20046;-55
2023/06/02 00:13:21;;;;;;;9.85;5.07;;;17.00;95.40;;;;;;5024401;28;20050;-54
2023/06/02 00:15:47;;;;;;;11.55;4.70;;;17.00;95.40;;;;;;5026801;28;20076;-55
2023/06/02 00:18:13;;;;;;;9.18;4.50;;;16.90;95.50;;;;;;5024092;28;20052;-55
2023/06/02 00:20:39;;;;;;;8.50;4.90;;;16.80;95.50;;;;;;5025334;28;20432;-54
2023/06/02 00:23:08;;;;;;;13.88;6.13;;;16.80;95.60;;;;;;5025994;28;20591;-54
2023/06/02 00:25:35;;;;;;;9.52;4.40;;;16.80;95.60;;;;;;5018722;28;20550;-55
2023/06/02 00:28:01;;;;;;;10.23;4.90;;;16.70;95.60;;;;;;5027022;28;20196;-54
2023/06/02 00:30:27;;;;;;;9.20;5.88;;;16.60;95.70;;;;;;5022376;28;20104;-54
2023/06/02 00:32:53;;;;;;;12.25;5.78;;;16.60;95.80;;;;;;5024820;28;20946;-55
2023/06/02 00:35:19;;;;;;;10.23;5.65;;;16.50;95.80;;;;;;5024208;28;20574;-54
2023/06/02 00:37:46;;;;;;;10.35;4.35;;;16.40;95.90;;;;;;5022378;28;20053;-55
2023/06/02 00:40:12;;;;;;;10.23;5.35;;;16.40;96.00;;;;;;5024417;28;20048;-55
2023/06/02 00:42:38;;;;;;;12.52;6.18;;;16.40;96.00;;;;;;5027098;28;20069;-54
2023/06/02 00:45:05;;;;;;;9.52;5.47;;;16.30;96.00;;;;;;5026887;28;20050;-54
2023/06/02 00:47:30;;;;;;;6.05;3.67;;;16.20;96.20;;;;;;5021965;28;20057;-54
2023/06/02 00:49:57;;;;;;;8.15;4.80;;;16.20;96.20;;;;;;5024502;28;20042;-55
2023/06/02 00:52:24;;;;;;;7.68;3.47;;;16.20;96.30;;;;;;5025552;28;20049;-55
2023/06/02 00:54:50;;;;;;;12.10;5.68;;;16.10;96.60;;;;;;5021900;28;20050;-55
2023/06/02 00:57:16;;;;;;;13.05;6.47;;;16.10;96.30;;;;;;5024833;28;20120;-55
2023/06/02 00:59:43;;;;;;;13.65;6.95;;;16.10;96.30;;;;;;5022009;28;20400;-54
2023/06/02 01:02:10;;;;;;;11.98;6.15;;;16.00;96.40;;;;;;5056196;28;20046;-54
2023/06/02 01:04:40;;;;;;;12.52;6.13;;;16.00;96.60;;;;;;5023586;28;20054;-55
2023/06/02 01:07:07;;;;;;;10.35;6.00;;;16.00;96.60;;;;;;5021129;28;20124;-54
2023/06/02 01:09:35;;;;;;;10.65;5.60;;;15.90;96.70;;;;;;5024398;28;20038;-54
2023/06/02 01:12:01;;;;;;;10.70;5.32;;;15.80;96.70;;;;;;5018364;28;20386;-54
2023/06/02 01:14:28;;;;;;;10.70;5.45;;;15.80;96.80;;;;;;5023306;28;20049;-55
2023/06/02 01:16:53;;;;;;;5.53;3.13;;;15.70;96.90;;;;;;5021639;28;20037;-54
2023/06/02 01:19:25;;;;;;;10.40;4.68;;;15.70;97.00;;;;;;5023827;28;20033;-54
2023/06/02 01:21:59;;;;;;;12.40;6.88;;;15.70;97.10;;;;;;5024547;28;20041;-54
2023/06/02 01:24:37;;;;;;;9.90;5.47;;;15.70;97.00;;;;;;5022414;28;20043;-54
2023/06/02 01:27:12;;;;;;;9.15;4.78;;;15.70;96.90;;;;;;5026752;28;20046;-54
2023/06/02 01:29:38;;;;;;;10.15;5.25;;;15.60;97.10;;;;;;5023657;28;20483;-54
2023/06/02 01:32:34;;;;;;;11.30;5.90;;;15.50;97.10;;;;;;5024752;28;20068;-54
2023/06/02 01:35:05;;;;;;;9.88;4.45;;;15.50;97.20;;;;;;5024935;28;20080;-54
2023/06/02 01:37:35;;;;;;;7.67;4.20;;;15.40;97.30;;;;;;5024255;28;20072;-54
2023/06/02 01:40:03;;;;;;;9.68;5.75;;;15.30;97.50;;;;;;5019146;28;20963;-54
2023/06/02 01:42:30;;;;;;;11.27;6.20;;;15.20;97.70;;;;;;5023480;28;20140;-54
2023/06/02 01:44:56;;;;;;;9.23;5.90;;;15.10;97.80;;;;;;5026697;28;20049;-55
2023/06/02 01:47:23;;;;;;;14.82;6.75;;;15.20;97.90;;;;;;5025312;28;20064;-54
2023/06/02 01:49:48;;;;;;;10.57;5.75;;;15.10;97.80;;;;;;5026051;28;20129;-54
2023/06/02 01:52:15;;;;;;;11.32;5.88;;;15.10;97.80;;;;;;5023856;28;20052;-54
2023/06/02 01:54:43;;;;;;;6.90;4.70;;;15.10;98.00;;;;;;5054592;28;20468;-54
2023/06/02 01:57:09;;;;;;;14.23;5.43;;;15.00;98.00;;;;;;5021966;28;20100;-54
2023/06/02 01:59:35;;;;;;;9.60;5.38;;;14.90;98.20;;;;;;5024160;28;20042;-54
2023/06/02 02:02:01;;;;;;;12.52;5.28;;;14.90;98.20;;;;;;5025726;28;20382;-56
2023/06/02 02:04:29;;;;;;;8.65;4.75;;;14.80;98.30;;;;;;5025479;28;20045;-55
2023/06/02 02:06:55;;;;;;;13.75;5.25;;;14.70;98.70;;;;;;5025077;28;21364;-54
2023/06/02 02:09:21;;;;;;;14.02;7.43;;;14.70;98.80;;;;;;5023967;28;20049;-54
2023/06/02 02:11:47;;;;;;;10.82;5.10;;;14.60;98.90;;;;;;5024408;28;20128;-58
2023/06/02 02:14:13;;;;;;;16.65;7.45;;;14.70;98.90;;;;;;5025281;28;20049;-57
2023/06/02 02:16:44;;;;;;;9.80;7.15;;;14.70;99.10;;;;;;5023601;28;20991;-54
2023/06/02 02:19:12;;;;;;;8.13;5.35;;;14.70;99.10;;;;;;5025491;28;20538;-54
2023/06/02 02:21:38;;;;;;;12.95;7.43;;;14.70;99.10;;;;;;5025474;28;20042;-54
2023/06/02 02:24:05;;;;;;;13.23;7.05;;;14.60;99.20;;;;;;5024767;28;20054;-54
2023/06/02 02:26:31;;;;;;;13.88;6.88;;;14.60;99.40;;;;;;5055947;28;20046;-55
2023/06/02 02:28:56;;;;;;;12.48;7.68;;;14.60;99.50;;;;;;5026650;28;20054;-55
2023/06/02 02:31:22;;;;;;;10.05;6.38;;;14.70;99.50;;;;;;5023540;28;20167;-55
2023/06/02 02:33:48;;;;;;;17.58;8.25;;;14.80;99.40;;;;;;5023167;28;20049;-56
2023/06/02 02:36:16;;;;;;;13.45;6.90;;;14.70;99.40;;;;;;5021836;28;20041;-54
2023/06/02 02:38:42;;;;;;;29.15;9.40;;;14.70;99.40;;;;;;5022415;28;20041;-55
2023/06/02 02:41:07;;;;;;;12.30;7.05;;;14.70;99.50;;;;;;5046382;28;20046;-54
2023/06/02 02:43:33;;;;;;;16.48;6.72;;;14.60;99.70;;;;;;5053616;28;20046;-57
2023/06/02 02:45:59;;;;;;;16.55;7.80;;;14.60;99.80;;;;;;5019528;28;20078;-55
2023/06/02 02:48:25;;;;;;;15.40;8.45;;;14.60;99.90;;;;;;5023172;28;20141;-54
2023/06/02 02:50:50;;;;;;;12.82;8.57;;;14.50;99.90;;;;;;5024809;28;20475;-54
2023/06/02 02:53:16;;;;;;;10.77;7.45;;;14.50;99.90;;;;;;5022417;28;20054;-54
2023/06/02 02:55:44;;;;;;;9.85;6.93;;;14.50;99.90;;;;;;5025212;28;20535;-54
2023/06/02 02:58:10;;;;;;;13.02;5.93;;;14.60;99.90;;;;;;5024616;28;20569;-54
2023/06/02 03:00:35;;;;;;;14.77;9.23;;;14.50;99.90;;;;;;5015383;28;20042;-54
2023/06/02 03:03:01;;;;;;;14.68;7.07;;;14.40;99.90;;;;;;5022257;28;20047;-54
2023/06/02 03:05:27;;;;;;;17.55;9.70;;;14.40;99.90;;;;;;5023773;28;20053;-54
2023/06/02 03:07:54;;;;;;;12.57;7.47;;;14.40;99.90;;;;;;5023701;28;20038;-54
2023/06/02 03:10:20;;;;;;;9.80;6.65;;;14.40;99.90;;;;;;5023785;28;20050;-54
2023/06/02 03:12:46;;;;;;;12.63;7.80;;;14.40;99.90;;;;;;5018660;28;20642;-54
2023/06/02 03:15:11;;;;;;;15.15;8.25;;;14.40;99.90;;;;;;5024615;28;20038;-54
2023/06/02 03:17:37;;;;;;;13.48;9.00;;;14.40;99.90;;;;;;5023523;28;20042;-54
2023/06/02 03:20:08;;;;;;;16.13;9.02;;;14.40;99.90;;;;;;5026325;28;20046;-54
2023/06/02 03:22:35;;;;;;;13.25;8.63;;;14.50;99.90;;;;;;5022952;28;20056;-54
2023/06/02 03:25:01;;;;;;;13.52;6.90;;;14.40;99.90;;;;;;5023507;28;20176;-54
2023/06/02 03:27:27;;;;;;;15.90;7.57;;;14.50;99.90;;;;;;5022534;28;20503;-54
2023/06/02 03:29:53;;;;;;;17.33;9.68;;;14.50;99.90;;;;;;5025710;28;20518;-54
2023/06/02 03:32:19;;;;;;;15.10;6.43;;;14.40;99.90;;;;;;5023405;28;20124;-57
2023/06/02 03:34:46;;;;;;;14.35;8.77;;;14.40;99.90;;;;;;5022010;28;20405;-54
2023/06/02 03:37:12;;;;;;;20.27;10.07;;;14.40;99.90;;;;;;5024079;28;20044;-54
2023/06/02 03:39:38;;;;;;;12.48;8.15;;;14.40;99.90;;;;;;5023616;28;20041;-54
2023/06/02 03:42:04;;;;;;;17.13;10.07;;;14.50;99.90;;;;;;5020606;28;20100;-55
2023/06/02 03:44:29;;;;;;;11.48;7.88;;;14.40;99.90;;;;;;5021518;28;20042;-55
2023/06/02 03:46:55;;;;;;;20.40;10.73;;;14.30;99.90;;;;;;5022615;28;20049;-54
2023/06/02 03:49:21;;;;;;;23.33;10.05;;;14.30;99.90;;;;;;5021871;28;20611;-56
2023/06/02 03:51:47;;;;;;;12.75;8.77;;;14.30;99.90;;;;;;5019919;28;20452;-55
2023/06/02 03:54:13;;;;;;;16.35;8.98;;;14.30;99.90;;;;;;5023333;28;20065;-54
2023/06/02 03:56:39;;;;;;;14.73;10.20;;;14.20;99.90;;;;;;5020778;28;20047;-54
2023/06/02 03:59:05;;;;;;;17.08;9.88;;;14.20;99.90;;;;;;5023197;28;20531;-54
2023/06/02 04:01:32;;;;;;;22.02;9.93;;;14.10;99.90;;;;;;5021999;28;20045;-54
2023/06/02 04:03:58;;;;;;;12.27;6.75;;;14.10;99.90;;;;;;5023887;28;20540;-54
2023/06/02 04:06:25;;;;;;;12.00;8.18;;;14.10;99.90;;;;;;5021970;28;20046;-54
2023/06/02 04:08:51;;;;;;;13.95;9.70;;;14.10;99.90;;;;;;5022826;28;20045;-54
2023/06/02 04:11:17;;;;;;;13.68;8.32;;;14.10;99.90;;;;;;5021913;28;20596;-54
2023/06/02 04:13:43;;;;;;;12.00;8.25;;;14.10;99.90;;;;;;5021876;28;20053;-54
2023/06/02 04:16:08;;;;;;;20.17;9.82;;;14.00;99.90;;;;;;5023788;28;20046;-56
2023/06/02 04:18:40;;;;;;;13.18;8.38;;;14.00;99.90;;;;;;5017839;28;20084;-54
2023/06/02 04:21:06;;;;;;;16.60;9.68;;;14.00;99.90;;;;;;5021379;28;20079;-54
2023/06/02 04:23:31;;;;;;;14.43;7.68;;;14.00;99.90;;;;;;5022109;28;20045;-54
2023/06/02 04:25:57;;;;;;;13.52;7.25;;;14.00;99.90;;;;;;5023016;28;20033;-54
2023/06/02 04:28:23;;;;;;;20.17;10.98;;;14.10;99.90;;;;;;5023030;28;20483;-54
2023/06/02 04:30:54;;;;;;;10.02;6.65;;;14.10;99.90;;;;;;5021874;28;20053;-54
2023/06/02 04:33:20;;;;;;;14.60;8.97;;;14.00;99.90;;;;;;5018541;28;20037;-54
2023/06/02 04:35:46;;;;;;;17.33;8.82;;;13.90;99.90;;;;;;5022032;28;20038;-54
2023/06/02 04:38:12;;;;;;;13.10;9.48;;;13.90;99.90;;;;;;5017525;28;20046;-54
2023/06/02 04:40:39;;;;;;;15.25;10.13;;;14.00;99.90;;;;;;5023848;28;20046;-54
2023/06/02 04:43:05;;;;;;;13.20;7.25;;;14.00;99.90;;;;;;5021324;28;20038;-54
2023/06/02 04:45:31;;;;;;;14.05;8.63;;;14.10;99.90;;;;;;5020615;28;20123;-54
2023/06/02 04:47:57;;;;;;;14.32;9.00;;;14.20;99.90;;;;;;5006531;28;20073;-54
2023/06/02 04:50:23;;;;;;;17.63;10.15;;;14.10;99.90;;;;;;5024794;28;20042;-54
2023/06/02 04:52:49;;;;;;;18.38;10.05;;;14.10;99.90;;;;;;5021868;28;20121;-54
2023/06/02 04:55:14;;;;;;;21.52;10.50;;;14.00;99.90;;;;;;5021092;28;20037;-54
2023/06/02 04:57:41;;;;;;;13.45;7.78;;;14.00;99.90;;;;;;5017851;28;20539;-55
2023/06/02 05:00:08;;;;;;;16.00;8.07;;;14.00;99.90;;;;;;5027384;28;20050;-54
2023/06/02 05:02:37;;;;;;;12.32;7.88;;;14.10;99.90;;;;;;5023442;28;20133;-54
2023/06/02 05:05:05;;;;;;;15.82;8.73;;;14.10;99.90;;;;;;5023819;28;20448;-57
2023/06/02 05:07:30;;;;;;;13.50;8.18;;;14.00;99.90;;;;;;5022831;28;20491;-54
2023/06/02 05:09:56;;;;;;;15.32;8.77;;;14.00;99.90;;;;;;5025053;28;20057;-55
2023/06/02 05:12:22;;;;;;;15.07;9.68;;;13.90;99.90;;;;;;5021861;28;20517;-55
2023/06/02 05:14:48;;;;;;;24.38;10.18;;;13.90;99.90;;;;;;5022313;28;20056;-55
2023/06/02 05:17:23;;;;;;;16.90;9.85;;;14.00;99.90;;;;;;5026009;28;20104;-54
2023/06/02 05:19:53;;;;;;;12.27;7.15;;;14.00;99.90;;;;;;5025433;28;20447;-54
2023/06/02 05:22:19;;;;;;;32.08;10.50;;;13.90;99.90;;;;;;5026079;28;20048;-54
2023/06/02 05:24:45;;;;;;;11.70;6.07;;;14.00;99.90;;;;;;5023930;28;20481;-54
2023/06/02 05:27:11;;;;;;;19.15;9.70;;;13.90;99.90;;;;;;5027697;28;20046;-54
2023/06/02 05:29:36;;;;;;;17.70;9.15;;;14.00;99.90;;;;;;5026243;28;20050;-54
2023/06/02 05:32:02;;;;;;;15.85;6.68;;;13.90;99.90;;;;;;5026682;28;20038;-55
2023/06/02 05:34:28;;;;;;;18.85;11.40;;;14.00;99.90;;;;;;5059588;28;20532;-55
2023/06/02 05:36:54;;;;;;;12.60;8.30;;;14.00;99.90;;;;;;5025220;28;20047;-54
2023/06/02 05:39:19;;;;;;;16.73;7.35;;;14.00;99.90;;;;;;5024430;28;20160;-54
2023/06/02 05:41:45;;;;;;;13.30;7.90;;;14.10;99.90;;;;;;5025566;28;20041;-56
2023/06/02 05:44:11;;;;;;;8.90;6.25;;;14.00;99.90;;;;;;5026739;28;20061;-54
2023/06/02 05:46:40;;;;;;;19.58;11.93;;;14.00;99.90;;;;;;5025706;28;20053;-54
2023/06/02 05:49:05;;;;;;;19.08;11.60;;;14.00;99.90;;;;;;5026922;28;20512;-54
2023/06/02 05:51:31;;;;;;;15.65;10.63;;;14.00;99.90;;;;;;5017583;28;20114;-54
2023/06/02 05:53:57;;;;;;;14.80;9.70;;;14.10;99.90;;;;;;5019575;28;20041;-55
2023/06/02 05:56:23;;;;;;;19.35;9.70;;;14.20;99.90;;;;;;5024623;28;20067;-54
2023/06/02 05:58:49;;;;;;;12.07;7.03;;;14.00;99.90;;;;;;5054782;28;20038;-54
2023/06/02 06:01:15;;;;;;;17.77;10.77;;;14.00;99.90;;;;;;5053682;28;20052;-55
2023/06/02 06:03:41;;;;;;;18.92;9.98;;;14.10;99.90;;;;;;5024662;28;20092;-55
2023/06/02 06:06:08;;;;;;;13.65;8.55;;;14.10;99.90;;;;;;5023509;28;20081;-54
2023/06/02 06:08:34;;;;;;;19.08;9.75;;;14.10;99.90;;;;;;5018257;28;20521;-54
2023/06/02 06:10:59;;;;;;;17.27;8.93;;;14.10;99.90;;;;;;5021956;28;20120;-54
2023/06/02 06:13:25;;;;;;;17.23;9.68;;;14.00;99.90;;;;;;5024444;28;20140;-55
2023/06/02 06:15:51;;;;;;;17.90;9.50;;;14.10;99.90;;;;;;5024730;28;20041;-56
2023/06/02 06:18:18;;;;;;;15.02;7.75;;;14.20;99.90;;;;;;5024032;28;20137;-57
2023/06/02 06:20:45;;;;;;;13.98;8.60;;;14.20;99.90;;;;;;5018241;28;20050;-54
2023/06/02 06:23:13;;;;;;;21.38;12.30;;;14.20;99.90;;;;;;5014178;28;20128;-54
2023/06/02 06:25:38;;;;;;;22.13;10.85;;;14.10;99.90;;;;;;5014818;28;20041;-54
2023/06/02 06:28:04;;;;;;;21.23;8.27;;;14.10;99.90;;;;;;5015370;28;20046;-54
2023/06/02 06:30:30;;;;;;;13.80;6.57;;;13.90;99.90;;;;;;5004962;28;20095;-55
2023/06/02 06:32:56;;;;;;;30.35;12.82;;;14.20;99.90;;;;;;5023317;28;20245;-55
2023/06/02 06:35:22;;;;;;;19.80;8.82;;;14.30;99.90;;;;;;5022664;28;20362;-55
2023/06/02 06:37:47;;;;;;;18.27;10.18;;;14.30;99.90;;;;;;5024482;28;20064;-55
2023/06/02 06:40:13;;;;;;;19.50;11.93;;;14.30;99.90;;;;;;5024730;28;20816;-55
2023/06/02 06:42:39;;;;;;;18.42;11.30;;;14.30;99.90;;;;;;5023686;28;20084;-55
2023/06/02 06:45:05;;;;;;;20.98;12.30;;;14.40;99.90;;;;;;5024167;28;20042;-55
2023/06/02 06:47:31;;;;;;;20.35;11.98;;;14.50;99.90;;;;;;5025978;28;20050;-55
2023/06/02 06:49:57;;;;;;;22.63;13.10;;;14.50;99.90;;;;;;5054084;28;20069;-55
2023/06/02 06:52:22;;;;;;;13.27;7.85;;;14.50;99.90;;;;;;5023659;28;20061;-55
2023/06/02 06:54:48;;;;;;;15.18;8.18;;;14.50;99.90;;;;;;5023786;28;20046;-55
2023/06/02 06:57:15;;;;;;;23.02;11.15;;;14.50;99.90;;;;;;5023322;28;20057;-55
2023/06/02 06:59:44;;;;;;;15.43;9.88;;;14.50;99.90;;;;;;5023551;28;20475;-55
2023/06/02 07:02:10;;;;;;;14.73;9.05;;;14.50;99.90;;;;;;5023215;28;20046;-55
2023/06/02 07:04:36;;;;;;;22.25;11.48;;;14.40;99.90;;;;;;5023112;28;20042;-55
2023/06/02 07:07:02;;;;;;;19.13;10.27;;;14.40;99.90;;;;;;5022865;28;20416;-55
2023/06/02 07:09:27;;;;;;;11.73;7.28;;;14.50;99.90;;;;;;5022150;28;20424;-55
2023/06/02 07:11:53;;;;;;;15.77;8.98;;;14.60;99.90;;;;;;5025131;28;20099;-55
2023/06/02 07:14:19;;;;;;;15.48;6.78;;;14.50;99.90;;;;;;5024858;28;20536;-55
2023/06/02 07:16:46;;;;;;;20.55;9.77;;;14.40;99.90;;;;;;5022465;28;20440;-55
2023/06/02 07:19:12;;;;;;;16.88;8.63;;;14.40;99.90;;;;;;5024803;28;20193;-55
2023/06/02 07:21:38;;;;;;;19.83;9.50;;;14.40;99.90;;;;;;5023617;28;20045;-55
2023/06/02 07:24:03;;;;;;;13.75;8.00;;;14.40;99.90;;;;;;5026292;28;21248;-57
2023/06/02 07:26:29;;;;;;;14.93;8.93;;;14.30;99.90;;;;;;5025002;28;20516;-56
2023/06/02 07:28:56;;;;;;;16.90;8.73;;;14.30;99.90;;;;;;5024532;28;20056;-55
2023/06/02 07:31:22;;;;;;;14.80;8.00;;;14.30;99.90;;;;;;5025463;28;20038;-55
2023/06/02 07:33:48;;;;;;;12.98;6.93;;;14.20;99.90;;;;;;5024858;28;20409;-55
2023/06/02 07:36:14;;;;;;;16.00;9.18;;;14.20;99.90;;;;;;5023614;28;20448;-55
2023/06/02 07:38:40;;;;;;;12.15;7.90;;;14.20;99.90;;;;;;5021444;28;20054;-55
2023/06/02 07:41:06;;;;;;;13.15;7.70;;;14.20;99.90;;;;;;5022860;28;20049;-58
2023/06/02 07:43:32;;;;;;;10.43;6.53;;;14.30;99.90;;;;;;5025126;28;20511;-55
2023/06/02 07:45:57;;;;;;;24.00;9.57;;;14.30;99.90;;;;;;5024080;28;20103;-54
2023/06/02 07:48:23;;;;;;;17.67;7.88;;;14.30;99.90;;;;;;5024984;28;20547;-55
2023/06/02 07:50:49;;;;;;;12.85;7.57;;;14.40;99.90;;;;;;5023831;28;20424;-55
2023/06/02 07:53:14;;;;;;;17.45;9.07;;;14.40;99.90;;;;;;5024392;28;20042;-55
2023/06/02 07:55:40;;;;;;;15.32;7.72;;;14.30;99.90;;;;;;5024214;28;20049;-54
2023/06/02 07:58:08;;;;;;;16.55;9.48;;;14.30;99.90;;;;;;5022489;28;20768;-55
2023/06/02 08:00:34;;;;;;;14.15;8.73;;;14.40;99.90;;;;;;5024356;28;20966;-55
2023/06/02 08:03:00;;;;;;;8.02;5.35;;;14.40;99.90;;;;;;5052500;28;20049;-55
2023/06/02 08:05:26;;;;;;;13.88;6.63;;;14.40;99.90;;;;;;5024748;28;20100;-54
2023/06/02 08:07:51;;;;;;;16.88;5.30;;;14.50;99.90;;;;;;5054519;28;20045;-55
2023/06/02 08:10:17;;;;;;;9.88;6.30;;;14.40;99.90;;;;;;5021174;28;20092;-55
2023/06/02 08:12:43;;;;;;;14.30;9.00;;;14.40;99.90;;;;;;5022178;28;20049;-55
2023/06/02 08:15:09;;;;;;;18.02;8.07;;;14.40;99.90;;;;;;5024204;28;20065;-55
2023/06/02 08:17:35;;;;;;;12.40;6.93;;;14.40;99.90;;;;;;5023264;28;20932;-54
2023/06/02 08:20:01;;;;;;;10.85;6.97;;;14.50;99.90;;;;;;5007375;28;20164;-55
2023/06/02 08:22:28;;;;;;;11.43;7.85;;;14.50;99.90;;;;;;5024953;28;20472;-54
2023/06/02 08:24:55;;;;;;;15.85;8.90;;;14.50;99.90;;;;;;5057363;28;20523;-54
2023/06/02 08:27:21;;;;;;;10.25;6.70;;;14.50;99.90;;;;;;5024662;28;20551;-54
2023/06/02 08:29:49;;;;;;;16.92;6.63;;;14.50;99.90;;;;;;5026095;28;20038;-55
2023/06/02 08:32:16;;;;;;;15.32;5.50;;;14.60;99.90;;;;;;5026297;28;20101;-55
2023/06/02 08:34:47;;;;;;;14.10;5.90;;;14.60;99.90;;;;;;5027405;28;20568;-57
2023/06/02 08:37:16;;;;;;;12.98;6.57;;;14.60;99.90;;;;;;5027337;28;20073;-54
2023/06/02 08:39:49;;;;;;;13.65;7.80;;;14.60;99.90;;;;;;5026886;28;20790;-55
2023/06/02 08:42:16;;;;;;;10.40;5.57;;;14.70;99.90;;;;;;5022330;28;20135;-55
2023/06/02 08:44:43;;;;;;;16.05;7.55;;;14.70;99.90;;;;;;5024032;28;20041;-55
2023/06/02 08:47:12;;;;;;;12.02;6.50;;;14.70;99.90;;;;;;5026661;28;20057;-56
2023/06/02 08:49:43;;;;;;;11.02;6.10;;;14.70;99.90;;;;;;5027287;28;20042;-55
2023/06/02 08:52:15;;;;;;;9.18;4.65;;;14.80;99.90;;;;;;5026722;28;20034;-56
2023/06/02 08:54:42;;;;;;;12.10;7.57;;;14.80;99.90;;;;;;5025612;28;20046;-55
2023/06/02 08:57:12;;;;;;;11.48;6.35;;;14.70;99.90;;;;;;5025821;28;20071;-55
2023/06/02 08:59:40;;;;;;;8.75;6.07;;;14.70;99.90;;;;;;5024715;28;20104;-55
2023/06/02 09:02:06;;;;;;;7.40;4.22;;;14.80;99.90;;;;;;5026460;28;20630;-55
2023/06/02 09:04:32;;;;;;;10.38;5.25;;;14.80;99.90;;;;;;5026778;28;20077;-55
2023/06/02 09:07:13;;;;;;;11.80;6.38;;;14.80;99.90;;;;;;5026422;28;20083;-55
2023/06/02 09:09:43;;;;;;;12.40;6.97;;;14.90;99.90;;;;;;5027567;28;20370;-56
2023/06/02 09:12:09;;;;;;;9.82;5.00;;;15.00;99.90;;;;;;5024881;28;20136;-56
2023/06/02 09:14:36;;;;;;;11.77;7.28;;;15.00;99.90;;;;;;5027650;28;20052;-55
2023/06/02 09:17:02;;;;;;;22.05;8.68;;;15.00;99.90;;;;;;5024716;28;20947;-55
2023/06/02 09:19:51;;;;;;;13.38;6.80;;;15.10;99.90;;;;;;5026277;28;20159;-54
2023/06/02 09:22:16;;;;;;;15.75;6.60;;;15.10;99.90;;;;;;5028657;28;20065;-56
2023/06/02 09:24:42;;;;;;;7.97;5.00;;;15.20;99.90;;;;;;5023993;28;20057;-56
2023/06/02 09:27:12;;;;;;;15.73;8.30;;;15.20;99.90;;;;;;5010242;28;20041;-55
2023/06/02 09:29:39;;;;;;;14.90;7.65;;;15.20;99.90;;;;;;5025659;28;20520;-55
2023/06/02 09:32:12;;;;;;;11.18;7.45;;;15.30;99.90;;;;;;5026197;28;20045;-55
2023/06/02 09:34:38;;;;;;;10.13;5.85;;;15.30;99.90;;;;;;5026308;28;20578;-55
2023/06/02 09:37:11;;;;;;;8.90;5.63;;;15.40;99.90;;;;;;5026759;28;20389;-55
2023/06/02 09:39:38;;;;;;;9.30;5.70;;;15.40;99.90;;;;;;5026803;28;20088;-55
2023/06/02 09:42:06;;;;;;;12.75;6.70;;;15.40;99.90;;;;;;5025995;28;20048;-54
2023/06/02 09:44:32;;;;;;;11.50;7.65;;;15.40;99.90;;;;;;5026448;28;20049;-55
2023/06/02 09:46:59;;;;;;;12.38;8.70;;;15.40;99.90;;;;;;5025244;28;20058;-55
2023/06/02 09:49:25;;;;;;;18.20;7.20;;;15.40;99.90;;;;;;5025832;28;20184;-55
2023/06/02 09:51:51;;;;;;;11.82;7.25;;;15.50;99.90;;;;;;5025626;28;20041;-55
2023/06/02 09:54:17;;;;;;;14.80;8.07;;;15.50;99.90;;;;;;5025117;28;20053;-55
2023/06/02 09:56:43;;;;;;;14.07;9.88;;;15.60;99.90;;;;;;5025158;28;20980;-54
2023/06/02 09:59:09;;;;;;;14.27;8.55;;;15.60;99.90;;;;;;5023438;28;20516;-55
2023/06/02 10:01:36;;;;;;;9.95;6.88;;;15.70;99.90;;;;;;5023746;28;20105;-55
2023/06/02 10:04:04;;;;;;;17.48;9.35;;;15.70;99.90;;;;;;5025605;28;20120;-55
2023/06/02 10:06:41;;;;;;;18.45;8.77;;;15.80;99.90;;;;;;5024328;28;20495;-55
2023/06/02 10:09:18;;;;;;;16.88;8.10;;;15.80;99.90;;;;;;5025784;28;20085;-55
2023/06/02 10:12:01;;;;;;;15.60;10.30;;;15.90;99.90;;;;;;5024832;28;20042;-55
2023/06/02 10:14:57;;;;;;;12.20;9.65;;;15.80;99.90;;;;;;5026122;28;20042;-55
2023/06/02 10:17:45;;;;;;;17.40;9.48;;;15.80;99.90;;;;;;5022058;28;20046;-56
2023/06/02 10:20:24;;;;;;;13.52;6.45;;;15.90;99.90;;;;;;5025879;28;20494;-54
2023/06/02 10:23:13;;;;;;;14.57;9.63;;;15.90;99.90;;;;;;5025007;28;20052;-56
2023/06/02 10:25:57;;;;;;;12.98;9.15;;;16.00;99.90;;;;;;5026109;28;20555;-54
2023/06/02 10:28:26;;;;;;;11.73;8.63;;;16.00;99.90;;;;;;5025148;28;20755;-55
2023/06/02 10:31:06;;;;;;;13.93;9.00;;;16.00;99.90;;;;;;5025278;28;20060;-55
2023/06/02 10:33:48;;;;;;;11.50;7.90;;;16.10;99.90;;;;;;5024109;28;20038;-55
2023/06/02 10:36:13;;;;;;;;;;;16.10;99.90;;;;;;5024204;28;20594;-54
2023/06/02 10:38:39;;;;;;;14.48;9.35;;;16.10;99.90;;;;;;5024980;28;19928;-54
2023/06/02 10:41:06;;;;;;;19.05;10.07;;;16.10;99.90;;;;;;5025611;28;20041;-55
2023/06/02 10:43:35;;;;;;;16.77;9.18;;;16.20;99.90;;;;;;5023784;28;20132;-55
2023/06/02 10:46:21;;;;;;;14.10;8.73;;;16.20;99.90;;;;;;5022058;28;20062;-55
2023/06/02 10:48:47;;;;;;;12.95;7.95;;;16.20;99.90;;;;;;5023621;28;20048;-55
2023/06/02 10:51:14;;;;;;;10.50;7.20;;;16.20;99.90;;;;;;5024948;28;20524;-55
2023/06/02 10:53:58;;;;;;;14.90;9.35;;;16.30;99.90;;;;;;5024288;28;20045;-56
2023/06/02 10:56:39;;;;;;;14.77;8.40;;;16.40;99.90;;;;;;5024878;28;20057;-55
2023/06/02 10:59:06;;;;;;;12.00;8.98;;;16.40;99.90;;;;;;5024262;28;20057;-54
2023/06/02 11:01:51;;;;;;;12.50;8.40;;;16.40;99.90;;;;;;5024055;28;20071;-55
2023/06/02 11:04:24;;;;;;;9.77;7.82;;;16.50;99.90;;;;;;5018092;28;20144;-55
2023/06/02 11:07:15;;;;;;;13.18;9.07;;;16.50;99.90;;;;;;5025360;28;20044;-55
2023/06/02 11:09:43;;;;;;;12.18;9.23;;;16.50;99.90;;;;;;5023252;28;20125;-55
2023/06/02 11:12:09;;;;;;;31.13;10.50;;;16.60;99.90;;;;;;5007783;28;20436;-55
2023/06/02 11:15:10;;;;;;;10.43;6.30;;;16.70;99.90;;;;;;5024634;28;20045;-55
2023/06/02 11:17:36;;;;;;;19.73;8.00;;;16.70;99.90;;;;;;5004592;28;20529;-55
2023/06/02 11:20:05;;;;;;;11.88;7.43;;;16.70;99.90;;;;;;5019900;28;20050;-55
2023/06/02 11:22:32;;;;;;;11.98;7.18;;;16.80;99.90;;;;;;5055528;28;20532;-55
2023/06/02 11:24:59;;;;;;;17.23;9.35;;;16.80;99.90;;;;;;5024724;28;20041;-55
2023/06/02 11:27:42;;;;;;;11.70;8.23;;;16.90;99.90;;;;;;5025173;28;20050;-55
2023/06/02 11:30:18;;;;;;;11.88;7.72;;;16.90;99.90;;;;;;5024737;28;20520;-55
2023/06/02 11:32:49;;;;;;;12.00;8.25;;;16.90;99.90;;;;;;5024450;28;20045;-55
2023/06/02 11:35:19;;;;;;;13.75;8.98;;;17.00;99.50;;;;;;5024930;28;20601;-55
2023/06/02 11:38:02;;;;;;;11.77;7.65;;;17.00;99.70;;;;;;5024075;28;20129;-55
2023/06/02 11:40:29;;;;;;;10.15;6.03;;;17.10;99.40;;;;;;5022946;28;20042;-55
2023/06/02 11:42:55;;;;;;;15.95;8.68;;;17.10;99.30;;;;;;5023959;28;20133;-55
2023/06/02 11:45:25;;;;;;;14.38;7.88;;;17.00;99.30;;;;;;5024817;28;20464;-55
2023/06/02 11:48:03;;;;;;;19.00;8.77;;;17.10;99.50;;;;;;5023116;28;20824;-55
2023/06/02 11:50:30;;;;;;;17.58;6.72;;;17.20;99.40;;;;;;5023544;28;20042;-56
2023/06/02 11:52:55;;;;;;;14.27;7.82;;;17.20;99.40;;;;;;5022648;28;20160;-56
2023/06/02 11:55:26;;;;;;;12.27;7.45;;;17.20;99.30;;;;;;5025623;28;20190;-55
2023/06/02 11:57:51;;;;;;;14.40;9.52;;;17.30;99.20;;;;;;5023864;28;20133;-55
2023/06/02 12:00:19;;;;;;;26.08;9.45;;;17.30;99.00;;;;;;5027662;28;20056;-55
2023/06/02 12:02:51;;;;;;;19.15;7.15;;;17.40;99.00;;;;;;5025531;28;20356;-55
2023/06/02 12:05:36;;;;;;;9.07;5.40;;;17.40;98.80;;;;;;5027627;28;20132;-55
2023/06/02 12:08:09;;;;;;;16.15;8.30;;;17.50;98.70;;;;;;5026129;28;20129;-55
2023/06/02 12:10:35;;;;;;;10.82;7.05;;;17.50;98.30;;;;;;5041510;28;20065;-55
2023/06/02 12:13:01;;;;;;;14.95;6.75;;;17.50;98.20;;;;;;5027949;28;20448;-55
2023/06/02 12:15:35;;;;;;;10.77;6.88;;;17.50;98.00;;;;;;5027231;28;20077;-55
2023/06/02 12:18:03;;;;;;;10.15;7.72;;;17.50;98.10;;;;;;5025395;28;20049;-55
2023/06/02 12:20:40;;;;;;;8.20;7.15;;;17.60;98.20;;;;;;5026919;28;20483;-55
2023/06/02 12:23:06;;;;;;;14.75;6.50;;;17.60;98.10;;;;;;5025880;28;20050;-55
2023/06/02 12:25:33;;;;;;;19.80;8.80;;;17.60;98.40;;;;;;5024119;28;20045;-56
2023/06/02 12:28:10;;;;;;;12.40;6.65;;;17.70;98.50;;;;;;5020753;28;20053;-55
2023/06/02 12:30:36;;;;;;;10.05;6.40;;;17.80;98.30;;;;;;5027971;28;20049;-55
2023/06/02 12:33:09;;;;;;;8.15;6.78;;;17.80;98.20;;;;;;5026212;28;20041;-56
2023/06/02 12:35:35;;;;;;;13.30;7.07;;;17.80;98.10;;;;;;5026467;28;20532;-55
2023/06/02 12:38:03;;;;;;;10.18;5.82;;;17.80;98.20;;;;;;5025029;28;20444;-55
2023/06/02 12:40:29;;;;;;;12.88;5.53;;;17.90;97.80;;;;;;5025733;28;20203;-57
2023/06/02 12:42:55;;;;;;;7.90;6.10;;;17.90;97.50;;;;;;5025440;28;20046;-55